sensor_id;sensor_type;location;lat;lon;timestamp;P1;durP1;ratioP1;P2;durP2;ratioP2
36995;SDS011;22905;50.340;10.776;2022-11-20T00:02:55;32.30;;;13.15;;
36995;SDS011;22905;50.340;10.776;2022-11-20T00:07:55;37.40;;;13.93;;
36995;SDS011;22905;50.340;10.776;2022-11-20T00:12:57;63.13;;;22.55;;
36995;SDS011;22905;50.340;10.776;2022-11-20T00:17:58;44.85;;;18.10;;
36995;SDS011;22905;50.340;10.776;2022-11-20T00:22:58;35.53;;;14.25;;
36995;SDS011;22905;50.340;10.776;2022-11-20T00:27:59;32.15;;;14.27;;
36995;SDS011;22905;50.340;10.776;2022-11-20T00:32:59;33.97;;;13.50;;
36995;SDS011;22905;50.340;10.776;2022-11-20T00:37:59;31.60;;;12.60;;
36995;SDS011;22905;50.340;10.776;2022-11-20T00:42:59;40.28;;;14.63;;
36995;SDS011;22905;50.340;10.776;2022-11-20T00:48:00;38.67;;;13.48;;
36995;SDS011;22905;50.340;10.776;2022-11-20T00:53:00;33.28;;;12.65;;
36995;SDS011;22905;50.340;10.776;2022-11-20T00:58:00;31.45;;;11.63;;
36995;SDS011;22905;50.340;10.776;2022-11-20T01:03:01;28.73;;;11.68;;
36995;SDS011;22905;50.340;10.776;2022-11-20T01:08:01;35.25;;;13.38;;
36995;SDS011;22905;50.340;10.776;2022-11-20T01:13:01;29.70;;;12.33;;
36995;SDS011;22905;50.340;10.776;2022-11-20T01:18:20;27.05;;;11.05;;
36995;SDS011;22905;50.340;10.776;2022-11-20T01:23:20;30.92;;;12.13;;
36995;SDS011;22905;50.340;10.776;2022-11-20T01:28:21;41.63;;;14.33;;
36995;SDS011;22905;50.340;10.776;2022-11-20T01:33:21;42.25;;;14.45;;
36995;SDS011;22905;50.340;10.776;2022-11-20T01:38:21;33.57;;;13.27;;
36995;SDS011;22905;50.340;10.776;2022-11-20T01:43:22;33.95;;;13.55;;
36995;SDS011;22905;50.340;10.776;2022-11-20T01:48:26;34.60;;;13.75;;
36995;SDS011;22905;50.340;10.776;2022-11-20T01:53:32;29.08;;;11.13;;
36995;SDS011;22905;50.340;10.776;2022-11-20T01:58:35;30.17;;;11.02;;
36995;SDS011;22905;50.340;10.776;2022-11-20T02:03:36;27.90;;;11.02;;
36995;SDS011;22905;50.340;10.776;2022-11-20T02:08:37;24.33;;;10.97;;
36995;SDS011;22905;50.340;10.776;2022-11-20T02:13:38;28.27;;;12.93;;
36995;SDS011;22905;50.340;10.776;2022-11-20T02:18:44;27.50;;;12.10;;
36995;SDS011;22905;50.340;10.776;2022-11-20T02:29:11;30.75;;;12.35;;
36995;SDS011;22905;50.340;10.776;2022-11-20T02:34:11;31.67;;;11.90;;
36995;SDS011;22905;50.340;10.776;2022-11-20T02:39:11;28.55;;;9.50;;
36995;SDS011;22905;50.340;10.776;2022-11-20T02:44:13;27.35;;;11.57;;
36995;SDS011;22905;50.340;10.776;2022-11-20T02:49:13;30.17;;;13.30;;
36995;SDS011;22905;50.340;10.776;2022-11-20T02:54:13;42.25;;;15.60;;
36995;SDS011;22905;50.340;10.776;2022-11-20T02:59:14;32.53;;;14.05;;
36995;SDS011;22905;50.340;10.776;2022-11-20T03:04:14;46.47;;;17.17;;
36995;SDS011;22905;50.340;10.776;2022-11-20T03:09:14;31.63;;;14.63;;
36995;SDS011;22905;50.340;10.776;2022-11-20T03:14:15;52.22;;;19.63;;
36995;SDS011;22905;50.340;10.776;2022-11-20T03:19:15;34.20;;;15.00;;
36995;SDS011;22905;50.340;10.776;2022-11-20T03:24:15;35.90;;;13.23;;
36995;SDS011;22905;50.340;10.776;2022-11-20T03:29:16;27.60;;;12.03;;
36995;SDS011;22905;50.340;10.776;2022-11-20T03:34:16;26.58;;;13.00;;
36995;SDS011;22905;50.340;10.776;2022-11-20T03:39:16;34.80;;;14.33;;
36995;SDS011;22905;50.340;10.776;2022-11-20T03:44:16;34.58;;;13.73;;
36995;SDS011;22905;50.340;10.776;2022-11-20T03:49:17;35.77;;;14.50;;
36995;SDS011;22905;50.340;10.776;2022-11-20T03:54:17;36.50;;;15.27;;
36995;SDS011;22905;50.340;10.776;2022-11-20T03:59:17;33.88;;;13.07;;
36995;SDS011;22905;50.340;10.776;2022-11-20T04:04:18;42.20;;;18.23;;
36995;SDS011;22905;50.340;10.776;2022-11-20T04:09:18;32.30;;;13.68;;
36995;SDS011;22905;50.340;10.776;2022-11-20T04:14:19;37.72;;;15.13;;
36995;SDS011;22905;50.340;10.776;2022-11-20T04:19:19;50.23;;;15.53;;
36995;SDS011;22905;50.340;10.776;2022-11-20T04:24:19;45.05;;;17.42;;
36995;SDS011;22905;50.340;10.776;2022-11-20T04:29:19;43.70;;;16.33;;
36995;SDS011;22905;50.340;10.776;2022-11-20T04:34:20;33.45;;;13.32;;
36995;SDS011;22905;50.340;10.776;2022-11-20T04:39:20;41.63;;;14.98;;
36995;SDS011;22905;50.340;10.776;2022-11-20T04:44:20;32.60;;;14.52;;
36995;SDS011;22905;50.340;10.776;2022-11-20T04:49:21;30.90;;;13.73;;
36995;SDS011;22905;50.340;10.776;2022-11-20T04:54:21;42.75;;;14.85;;
36995;SDS011;22905;50.340;10.776;2022-11-20T04:59:21;32.03;;;13.70;;
36995;SDS011;22905;50.340;10.776;2022-11-20T05:04:22;33.10;;;14.60;;
36995;SDS011;22905;50.340;10.776;2022-11-20T05:09:22;37.50;;;15.85;;
36995;SDS011;22905;50.340;10.776;2022-11-20T05:14:22;34.13;;;13.75;;
36995;SDS011;22905;50.340;10.776;2022-11-20T05:19:23;32.90;;;13.57;;
36995;SDS011;22905;50.340;10.776;2022-11-20T05:24:23;35.80;;;14.52;;
36995;SDS011;22905;50.340;10.776;2022-11-20T05:29:23;34.20;;;13.55;;
36995;SDS011;22905;50.340;10.776;2022-11-20T05:34:24;35.78;;;13.85;;
36995;SDS011;22905;50.340;10.776;2022-11-20T05:39:24;31.27;;;13.13;;
36995;SDS011;22905;50.340;10.776;2022-11-20T05:44:24;33.78;;;13.07;;
36995;SDS011;22905;50.340;10.776;2022-11-20T05:49:24;29.88;;;13.45;;
36995;SDS011;22905;50.340;10.776;2022-11-20T05:54:25;33.33;;;13.90;;
36995;SDS011;22905;50.340;10.776;2022-11-20T05:59:25;35.43;;;13.77;;
36995;SDS011;22905;50.340;10.776;2022-11-20T06:04:25;33.15;;;14.55;;
36995;SDS011;22905;50.340;10.776;2022-11-20T06:09:26;32.97;;;13.03;;
36995;SDS011;22905;50.340;10.776;2022-11-20T06:14:26;30.88;;;15.35;;
36995;SDS011;22905;50.340;10.776;2022-11-20T06:19:26;32.65;;;13.73;;
36995;SDS011;22905;50.340;10.776;2022-11-20T06:24:27;30.60;;;13.17;;
36995;SDS011;22905;50.340;10.776;2022-11-20T06:29:27;35.53;;;15.25;;
36995;SDS011;22905;50.340;10.776;2022-11-20T06:34:28;34.80;;;13.77;;
36995;SDS011;22905;50.340;10.776;2022-11-20T06:39:29;32.17;;;15.27;;
36995;SDS011;22905;50.340;10.776;2022-11-20T06:44:29;36.03;;;14.25;;
36995;SDS011;22905;50.340;10.776;2022-11-20T06:49:29;34.40;;;13.87;;
36995;SDS011;22905;50.340;10.776;2022-11-20T06:54:30;32.17;;;13.83;;
36995;SDS011;22905;50.340;10.776;2022-11-20T06:59:30;37.95;;;16.33;;
36995;SDS011;22905;50.340;10.776;2022-11-20T07:04:30;33.72;;;13.43;;
36995;SDS011;22905;50.340;10.776;2022-11-20T07:09:31;43.15;;;15.20;;
36995;SDS011;22905;50.340;10.776;2022-11-20T07:14:31;39.63;;;14.90;;
36995;SDS011;22905;50.340;10.776;2022-11-20T07:19:31;38.13;;;14.45;;
36995;SDS011;22905;50.340;10.776;2022-11-20T07:24:32;32.05;;;14.35;;
36995;SDS011;22905;50.340;10.776;2022-11-20T07:29:32;36.03;;;14.07;;
36995;SDS011;22905;50.340;10.776;2022-11-20T07:34:32;31.70;;;12.83;;
36995;SDS011;22905;50.340;10.776;2022-11-20T07:39:33;33.50;;;14.57;;
36995;SDS011;22905;50.340;10.776;2022-11-20T07:44:33;40.53;;;16.45;;
36995;SDS011;22905;50.340;10.776;2022-11-20T07:49:34;34.70;;;14.15;;
36995;SDS011;22905;50.340;10.776;2022-11-20T07:54:34;40.50;;;19.00;;
36995;SDS011;22905;50.340;10.776;2022-11-20T07:59:34;47.20;;;18.07;;
36995;SDS011;22905;50.340;10.776;2022-11-20T08:04:35;38.90;;;15.90;;
36995;SDS011;22905;50.340;10.776;2022-11-20T08:09:35;37.75;;;15.68;;
36995;SDS011;22905;50.340;10.776;2022-11-20T08:14:35;40.25;;;16.40;;
36995;SDS011;22905;50.340;10.776;2022-11-20T08:19:36;44.17;;;18.95;;
36995;SDS011;22905;50.340;10.776;2022-11-20T08:24:36;59.50;;;23.88;;
36995;SDS011;22905;50.340;10.776;2022-11-20T08:29:36;46.93;;;19.27;;
36995;SDS011;22905;50.340;10.776;2022-11-20T08:34:37;66.72;;;25.45;;
36995;SDS011;22905;50.340;10.776;2022-11-20T08:39:37;48.93;;;20.00;;
36995;SDS011;22905;50.340;10.776;2022-11-20T08:44:37;45.38;;;17.10;;
36995;SDS011;22905;50.340;10.776;2022-11-20T08:49:37;42.47;;;18.85;;
36995;SDS011;22905;50.340;10.776;2022-11-20T08:54:38;37.65;;;15.35;;
36995;SDS011;22905;50.340;10.776;2022-11-20T08:59:38;47.65;;;18.20;;
36995;SDS011;22905;50.340;10.776;2022-11-20T09:04:39;49.05;;;18.83;;
36995;SDS011;22905;50.340;10.776;2022-11-20T09:09:39;46.53;;;18.05;;
36995;SDS011;22905;50.340;10.776;2022-11-20T09:14:39;42.83;;;17.55;;
36995;SDS011;22905;50.340;10.776;2022-11-20T09:19:40;47.03;;;20.43;;
36995;SDS011;22905;50.340;10.776;2022-11-20T09:24:40;39.33;;;17.90;;
36995;SDS011;22905;50.340;10.776;2022-11-20T09:29:42;51.15;;;21.08;;
36995;SDS011;22905;50.340;10.776;2022-11-20T09:34:42;54.95;;;19.88;;
36995;SDS011;22905;50.340;10.776;2022-11-20T09:39:43;55.75;;;19.95;;
36995;SDS011;22905;50.340;10.776;2022-11-20T09:44:48;56.67;;;21.55;;
36995;SDS011;22905;50.340;10.776;2022-11-20T09:55:30;49.70;;;22.48;;
36995;SDS011;22905;50.340;10.776;2022-11-20T10:00:31;59.92;;;21.20;;
36995;SDS011;22905;50.340;10.776;2022-11-20T10:10:45;66.25;;;25.48;;
36995;SDS011;22905;50.340;10.776;2022-11-20T10:15:53;65.00;;;26.20;;
36995;SDS011;22905;50.340;10.776;2022-11-20T10:31:56;61.72;;;23.52;;
36995;SDS011;22905;50.340;10.776;2022-11-20T10:37:09;53.35;;;23.17;;
36995;SDS011;22905;50.340;10.776;2022-11-20T10:42:14;58.28;;;23.85;;
36995;SDS011;22905;50.340;10.776;2022-11-20T10:47:18;68.30;;;23.45;;
36995;SDS011;22905;50.340;10.776;2022-11-20T10:52:25;66.55;;;25.95;;
36995;SDS011;22905;50.340;10.776;2022-11-20T10:57:52;60.10;;;22.67;;
36995;SDS011;22905;50.340;10.776;2022-11-20T11:02:55;63.50;;;26.20;;
36995;SDS011;22905;50.340;10.776;2022-11-20T11:08:02;69.28;;;26.00;;
36995;SDS011;22905;50.340;10.776;2022-11-20T11:13:03;70.30;;;26.02;;
36995;SDS011;22905;50.340;10.776;2022-11-20T11:18:03;70.63;;;28.83;;
36995;SDS011;22905;50.340;10.776;2022-11-20T11:23:04;72.57;;;30.35;;
36995;SDS011;22905;50.340;10.776;2022-11-20T11:33:20;85.75;;;30.05;;
36995;SDS011;22905;50.340;10.776;2022-11-20T11:43:33;92.32;;;30.75;;
36995;SDS011;22905;50.340;10.776;2022-11-20T11:54:11;70.10;;;29.03;;
36995;SDS011;22905;50.340;10.776;2022-11-20T11:59:27;82.22;;;34.40;;
36995;SDS011;22905;50.340;10.776;2022-11-20T12:04:37;88.50;;;32.08;;
36995;SDS011;22905;50.340;10.776;2022-11-20T12:09:43;86.82;;;31.92;;
36995;SDS011;22905;50.340;10.776;2022-11-20T12:14:48;80.18;;;29.63;;
36995;SDS011;22905;50.340;10.776;2022-11-20T12:19:50;93.65;;;32.03;;
36995;SDS011;22905;50.340;10.776;2022-11-20T12:24:55;73.75;;;29.08;;
36995;SDS011;22905;50.340;10.776;2022-11-20T12:30:11;71.68;;;26.75;;
36995;SDS011;22905;50.340;10.776;2022-11-20T12:40:37;74.93;;;25.37;;
36995;SDS011;22905;50.340;10.776;2022-11-20T12:46:00;65.75;;;23.75;;
36995;SDS011;22905;50.340;10.776;2022-11-20T12:51:25;69.82;;;24.70;;
36995;SDS011;22905;50.340;10.776;2022-11-20T13:07:18;79.13;;;25.35;;
36995;SDS011;22905;50.340;10.776;2022-11-20T13:17:54;71.15;;;25.38;;
36995;SDS011;22905;50.340;10.776;2022-11-20T13:22:58;85.38;;;34.55;;
36995;SDS011;22905;50.340;10.776;2022-11-20T13:28:00;76.97;;;27.65;;
36995;SDS011;22905;50.340;10.776;2022-11-20T13:33:20;81.97;;;28.77;;
36995;SDS011;22905;50.340;10.776;2022-11-20T13:38:23;78.80;;;28.00;;
36995;SDS011;22905;50.340;10.776;2022-11-20T13:43:27;84.47;;;29.08;;
36995;SDS011;22905;50.340;10.776;2022-11-20T13:48:38;71.28;;;24.55;;
36995;SDS011;22905;50.340;10.776;2022-11-20T14:04:26;69.22;;;24.35;;
36995;SDS011;22905;50.340;10.776;2022-11-20T14:09:31;67.43;;;24.20;;
36995;SDS011;22905;50.340;10.776;2022-11-20T14:14:33;64.03;;;23.52;;
36995;SDS011;22905;50.340;10.776;2022-11-20T14:19:36;83.15;;;25.50;;
36995;SDS011;22905;50.340;10.776;2022-11-20T14:24:37;73.65;;;27.05;;
36995;SDS011;22905;50.340;10.776;2022-11-20T14:29:38;82.10;;;28.40;;
36995;SDS011;22905;50.340;10.776;2022-11-20T14:34:39;78.80;;;25.50;;
36995;SDS011;22905;50.340;10.776;2022-11-20T14:39:48;72.85;;;22.92;;
36995;SDS011;22905;50.340;10.776;2022-11-20T14:44:55;71.57;;;24.73;;
36995;SDS011;22905;50.340;10.776;2022-11-20T14:49:57;84.32;;;31.38;;
36995;SDS011;22905;50.340;10.776;2022-11-20T14:54:58;70.70;;;23.42;;
36995;SDS011;22905;50.340;10.776;2022-11-20T15:05:12;94.60;;;29.33;;
36995;SDS011;22905;50.340;10.776;2022-11-20T15:15:21;95.40;;;28.23;;
36995;SDS011;22905;50.340;10.776;2022-11-20T15:20:27;142.35;;;44.60;;
36995;SDS011;22905;50.340;10.776;2022-11-20T15:25:29;160.98;;;54.25;;
36995;SDS011;22905;50.340;10.776;2022-11-20T15:30:30;97.45;;;32.85;;
36995;SDS011;22905;50.340;10.776;2022-11-20T15:35:30;93.00;;;34.20;;
36995;SDS011;22905;50.340;10.776;2022-11-20T15:40:30;90.40;;;24.08;;
36995;SDS011;22905;50.340;10.776;2022-11-20T15:45:36;84.50;;;31.87;;
36995;SDS011;22905;50.340;10.776;2022-11-20T15:50:42;80.97;;;24.27;;
36995;SDS011;22905;50.340;10.776;2022-11-20T15:55:49;90.15;;;29.73;;
36995;SDS011;22905;50.340;10.776;2022-11-20T16:00:49;93.93;;;32.10;;
36995;SDS011;22905;50.340;10.776;2022-11-20T16:05:50;99.55;;;33.15;;
36995;SDS011;22905;50.340;10.776;2022-11-20T16:10:50;90.70;;;28.50;;
36995;SDS011;22905;50.340;10.776;2022-11-20T16:15:52;104.78;;;32.10;;
36995;SDS011;22905;50.340;10.776;2022-11-20T16:20:55;86.03;;;29.52;;
36995;SDS011;22905;50.340;10.776;2022-11-20T16:25:56;82.43;;;28.95;;
36995;SDS011;22905;50.340;10.776;2022-11-20T16:30:56;89.27;;;30.40;;
36995;SDS011;22905;50.340;10.776;2022-11-20T16:35:56;88.10;;;30.95;;
36995;SDS011;22905;50.340;10.776;2022-11-20T16:41:00;101.30;;;29.85;;
36995;SDS011;22905;50.340;10.776;2022-11-20T16:46:02;96.72;;;34.25;;
36995;SDS011;22905;50.340;10.776;2022-11-20T16:51:03;97.78;;;31.83;;
36995;SDS011;22905;50.340;10.776;2022-11-20T16:56:11;103.82;;;34.80;;
36995;SDS011;22905;50.340;10.776;2022-11-20T17:01:16;105.65;;;32.95;;
36995;SDS011;22905;50.340;10.776;2022-11-20T17:06:20;88.88;;;33.22;;
36995;SDS011;22905;50.340;10.776;2022-11-20T17:11:22;99.13;;;33.78;;
36995;SDS011;22905;50.340;10.776;2022-11-20T17:16:23;89.75;;;26.67;;
36995;SDS011;22905;50.340;10.776;2022-11-20T17:21:23;104.32;;;32.85;;
36995;SDS011;22905;50.340;10.776;2022-11-20T17:26:24;102.93;;;32.42;;
36995;SDS011;22905;50.340;10.776;2022-11-20T17:31:25;93.40;;;28.02;;
36995;SDS011;22905;50.340;10.776;2022-11-20T17:36:27;90.13;;;28.50;;
36995;SDS011;22905;50.340;10.776;2022-11-20T17:41:28;83.32;;;25.77;;
36995;SDS011;22905;50.340;10.776;2022-11-20T17:46:29;99.25;;;27.00;;
36995;SDS011;22905;50.340;10.776;2022-11-20T17:51:32;82.43;;;28.05;;
36995;SDS011;22905;50.340;10.776;2022-11-20T17:56:34;85.15;;;27.02;;
36995;SDS011;22905;50.340;10.776;2022-11-20T18:01:53;95.88;;;29.63;;
36995;SDS011;22905;50.340;10.776;2022-11-20T18:06:53;170.95;;;60.00;;
36995;SDS011;22905;50.340;10.776;2022-11-20T18:11:54;174.80;;;60.83;;
36995;SDS011;22905;50.340;10.776;2022-11-20T18:16:55;308.27;;;106.83;;
36995;SDS011;22905;50.340;10.776;2022-11-20T18:22:00;103.13;;;34.83;;
36995;SDS011;22905;50.340;10.776;2022-11-20T18:27:06;128.77;;;49.33;;
36995;SDS011;22905;50.340;10.776;2022-11-20T18:32:08;93.15;;;39.65;;
36995;SDS011;22905;50.340;10.776;2022-11-20T18:37:08;112.73;;;46.83;;
36995;SDS011;22905;50.340;10.776;2022-11-20T18:42:12;100.05;;;35.30;;
36995;SDS011;22905;50.340;10.776;2022-11-20T18:47:34;90.35;;;30.30;;
36995;SDS011;22905;50.340;10.776;2022-11-20T18:52:37;85.18;;;29.95;;
36995;SDS011;22905;50.340;10.776;2022-11-20T18:57:40;85.20;;;30.40;;
36995;SDS011;22905;50.340;10.776;2022-11-20T19:02:41;83.88;;;30.90;;
36995;SDS011;22905;50.340;10.776;2022-11-20T19:07:41;100.65;;;33.85;;
36995;SDS011;22905;50.340;10.776;2022-11-20T19:12:41;86.25;;;32.42;;
36995;SDS011;22905;50.340;10.776;2022-11-20T19:17:42;91.00;;;33.43;;
36995;SDS011;22905;50.340;10.776;2022-11-20T19:22:42;76.03;;;28.57;;
36995;SDS011;22905;50.340;10.776;2022-11-20T19:27:42;87.25;;;31.75;;
36995;SDS011;22905;50.340;10.776;2022-11-20T19:32:43;93.50;;;31.10;;
36995;SDS011;22905;50.340;10.776;2022-11-20T19:37:43;92.53;;;28.02;;
36995;SDS011;22905;50.340;10.776;2022-11-20T19:42:43;84.45;;;29.95;;
36995;SDS011;22905;50.340;10.776;2022-11-20T19:47:44;84.95;;;34.40;;
36995;SDS011;22905;50.340;10.776;2022-11-20T19:52:44;77.05;;;28.60;;
36995;SDS011;22905;50.340;10.776;2022-11-20T19:57:44;74.78;;;27.52;;
36995;SDS011;22905;50.340;10.776;2022-11-20T20:02:45;72.10;;;25.13;;
36995;SDS011;22905;50.340;10.776;2022-11-20T20:07:45;100.30;;;39.47;;
36995;SDS011;22905;50.340;10.776;2022-11-20T20:12:45;94.30;;;34.10;;
36995;SDS011;22905;50.340;10.776;2022-11-20T20:17:46;80.00;;;27.17;;
36995;SDS011;22905;50.340;10.776;2022-11-20T20:22:46;80.22;;;27.65;;
36995;SDS011;22905;50.340;10.776;2022-11-20T20:27:46;96.15;;;42.08;;
36995;SDS011;22905;50.340;10.776;2022-11-20T20:32:47;78.05;;;30.67;;
36995;SDS011;22905;50.340;10.776;2022-11-20T20:37:48;106.68;;;43.40;;
36995;SDS011;22905;50.340;10.776;2022-11-20T20:42:49;105.85;;;43.45;;
36995;SDS011;22905;50.340;10.776;2022-11-20T20:47:49;90.82;;;36.20;;
36995;SDS011;22905;50.340;10.776;2022-11-20T20:52:49;103.13;;;43.97;;
36995;SDS011;22905;50.340;10.776;2022-11-20T20:57:50;80.97;;;35.67;;
36995;SDS011;22905;50.340;10.776;2022-11-20T21:02:51;91.82;;;35.92;;
36995;SDS011;22905;50.340;10.776;2022-11-20T21:07:51;88.32;;;31.85;;
36995;SDS011;22905;50.340;10.776;2022-11-20T21:13:10;93.78;;;33.45;;
36995;SDS011;22905;50.340;10.776;2022-11-20T21:18:10;88.95;;;36.70;;
36995;SDS011;22905;50.340;10.776;2022-11-20T21:23:11;83.90;;;33.30;;
36995;SDS011;22905;50.340;10.776;2022-11-20T21:28:11;80.83;;;34.93;;
36995;SDS011;22905;50.340;10.776;2022-11-20T21:33:12;89.22;;;32.80;;
36995;SDS011;22905;50.340;10.776;2022-11-20T21:38:12;78.45;;;29.10;;
36995;SDS011;22905;50.340;10.776;2022-11-20T21:43:12;64.70;;;26.15;;
36995;SDS011;22905;50.340;10.776;2022-11-20T21:48:13;91.63;;;37.40;;
36995;SDS011;22905;50.340;10.776;2022-11-20T21:53:13;96.57;;;40.97;;
36995;SDS011;22905;50.340;10.776;2022-11-20T21:58:14;101.00;;;40.23;;
36995;SDS011;22905;50.340;10.776;2022-11-20T22:03:14;109.37;;;45.47;;
36995;SDS011;22905;50.340;10.776;2022-11-20T22:08:14;150.55;;;56.78;;
36995;SDS011;22905;50.340;10.776;2022-11-20T22:13:15;127.70;;;49.65;;
36995;SDS011;22905;50.340;10.776;2022-11-20T22:18:34;67.05;;;24.67;;
36995;SDS011;22905;50.340;10.776;2022-11-20T22:23:34;63.60;;;25.73;;
36995;SDS011;22905;50.340;10.776;2022-11-20T22:28:35;58.25;;;21.92;;
36995;SDS011;22905;50.340;10.776;2022-11-20T22:33:36;45.80;;;18.98;;
36995;SDS011;22905;50.340;10.776;2022-11-20T22:38:37;38.50;;;17.50;;
36995;SDS011;22905;50.340;10.776;2022-11-20T22:43:38;25.98;;;11.85;;
36995;SDS011;22905;50.340;10.776;2022-11-20T22:48:40;18.90;;;8.57;;
36995;SDS011;22905;50.340;10.776;2022-11-20T22:53:42;18.42;;;7.50;;
36995;SDS011;22905;50.340;10.776;2022-11-20T22:58:43;7.95;;;5.05;;
36995;SDS011;22905;50.340;10.776;2022-11-20T23:03:50;10.80;;;4.80;;
36995;SDS011;22905;50.340;10.776;2022-11-20T23:08:52;6.32;;;4.38;;
36995;SDS011;22905;50.340;10.776;2022-11-20T23:13:53;16.45;;;8.05;;
36995;SDS011;22905;50.340;10.776;2022-11-20T23:19:00;8.50;;;5.07;;
36995;SDS011;22905;50.340;10.776;2022-11-20T23:24:03;9.02;;;5.93;;
36995;SDS011;22905;50.340;10.776;2022-11-20T23:29:04;7.57;;;3.55;;
36995;SDS011;22905;50.340;10.776;2022-11-20T23:34:04;10.45;;;4.35;;
36995;SDS011;22905;50.340;10.776;2022-11-20T23:39:05;3.75;;;3.25;;
36995;SDS011;22905;50.340;10.776;2022-11-20T23:44:07;8.17;;;3.70;;
36995;SDS011;22905;50.340;10.776;2022-11-20T23:49:07;9.90;;;5.32;;
36995;SDS011;22905;50.340;10.776;2022-11-20T23:54:08;5.73;;;4.00;;
36995;SDS011;22905;50.340;10.776;2022-11-20T23:59:08;9.60;;;5.78;;
